Time;durP1;ratioP1;P1;durP2;ratioP2;P2;SDS_P1;SDS_P2;PMS_P1;PMS_P2;Temp;Humidity;BMP_temperature;BMP_pressure;BME280_temperature;BME280_humidity;BME280_pressure;Samples;Min_cycle;Max_cycle;Signal;HPM_P1;HPM_P2
2023/11/05 00:01:46;;;;;;;;;;;;;;;;;;5071672;28;20277;-66
2023/11/05 00:04:12;;;;;;;;;;;;;;;;;;5044819;28;19965;-65
2023/11/05 00:06:38;;;;;;;;;;;;;;;;;;5072585;28;19962;-65
2023/11/05 00:09:04;;;;;;;;;;;;;;;;;;5072023;28;20361;-66
2023/11/05 00:11:30;;;;;;;;;;;;;;;;;;5071733;28;19952;-65
2023/11/05 00:13:57;;;;;;;;;;;;;;;;;;5066997;28;19921;-66
2023/11/05 00:16:23;;;;;;;;;;;;;;;;;;5070573;28;20272;-66
2023/11/05 00:18:49;;;;;;;;;;;;;;;;;;5069562;28;19916;-66
2023/11/05 00:21:15;;;;;;;;;;;;;;;;;;5082313;28;20376;-65
2023/11/05 00:23:41;;;;;;;;;;;;;;;;;;5070822;28;19954;-66
2023/11/05 00:26:07;;;;;;;;;;;;;;;;;;5072037;28;20015;-65
2023/11/05 00:28:33;;;;;;;;;;;;;;;;;;5069693;28;20054;-66
2023/11/05 00:30:58;;;;;;;;;;;;;;;;;;5068392;28;19916;-65
2023/11/05 00:33:24;;;;;;;;;;;;;;;;;;5070142;28;20281;-65
2023/11/05 00:35:50;;;;;;;;;;;;;;;;;;5069940;28;19916;-66
2023/11/05 00:38:16;;;;;;;;;;;;;;;;;;5072090;28;19920;-65
2023/11/05 00:40:42;;;;;;;;;;;;;;;;;;5071207;28;20003;-66
2023/11/05 00:43:08;;;;;;;;;;;;;;;;;;5075786;28;19912;-66
2023/11/05 00:45:34;;;;;;;;;;;;;;;;;;5060966;28;19952;-65
2023/11/05 00:48:00;;;;;;;;;;;;;;;;;;5069582;28;19919;-65
2023/11/05 00:50:26;;;;;;;;;;;;;;;;;;5073654;28;19931;-65
2023/11/05 00:52:51;;;;;;;;;;;;;;;;;;5075297;28;19963;-66
2023/11/05 00:55:17;;;;;;;;;;;;;;;;;;5075679;28;19912;-67
2023/11/05 00:57:43;;;;;;;;;;;;;;;;;;5063562;28;19966;-67
2023/11/05 01:00:10;;;;;;;;;;;;;;;;;;5071815;28;19916;-66
2023/11/05 01:02:36;;;;;;;;;;;;;;;;;;5072023;28;20372;-69
2023/11/05 01:05:02;;;;;;;;;;;;;;;;;;5066055;28;19970;-69
2023/11/05 01:07:28;;;;;;;;;;;;;;;;;;5072911;28;19999;-68
2023/11/05 01:09:53;;;;;;;;;;;;;;;;;;5072704;28;20490;-68
2023/11/05 01:12:19;;;;;;;;;;;;;;;;;;5065050;28;19927;-69
2023/11/05 01:14:45;;;;;;;;;;;;;;;;;;5075506;28;20015;-69
2023/11/05 01:17:12;;;;;;;;;;;;;;;;;;5066550;28;20031;-69
2023/11/05 01:19:38;;;;;;;;;;;;;;;;;;5073122;28;19912;-69
2023/11/05 01:22:04;;;;;;;;;;;;;;;;;;5074718;28;19918;-69
2023/11/05 01:24:30;;;;;;;;;;;;;;;;;;5071627;28;20295;-68
2023/11/05 01:26:56;;;;;;;;;;;;;;;;;;5073260;28;19917;-69
2023/11/05 01:29:22;;;;;;;;;;;;;;;;;;5075385;28;19916;-68
2023/11/05 01:31:48;;;;;;;;;;;;;;;;;;5074362;28;19992;-68
2023/11/05 01:34:14;;;;;;;;;;;;;;;;;;5073439;28;19939;-69
2023/11/05 01:36:40;;;;;;;;;;;;;;;;;;5074239;28;20367;-68
2023/11/05 01:39:06;;;;;;;;;;;;;;;;;;5073367;28;19951;-68
2023/11/05 01:41:32;;;;;;;;;;;;;;;;;;5074030;28;20365;-69
2023/11/05 01:43:58;;;;;;;;;;;;;;;;;;5074431;28;19912;-68
2023/11/05 01:46:24;;;;;;;;;;;;;;;;;;5073406;28;19913;-69
2023/11/05 01:48:50;;;;;;;;;;;;;;;;;;5068189;28;20023;-69
2023/11/05 01:51:16;;;;;;;;;;;;;;;;;;5073289;28;19912;-69
2023/11/05 01:53:42;;;;;;;;;;;;;;;;;;5071706;28;19920;-70
2023/11/05 01:56:08;;;;;;;;;;;;;;;;;;5072751;28;19939;-69
2023/11/05 01:58:34;;;;;;;;;;;;;;;;;;5074280;28;20292;-69
2023/11/05 02:01:00;;;;;;;;;;;;;;;;;;5071381;28;20019;-66
2023/11/05 02:03:26;;;;;;;;;;;;;;;;;;5074370;28;19999;-69
2023/11/05 02:05:52;;;;;;;;;;;;;;;;;;5067121;28;19913;-69
2023/11/05 02:08:17;;;;;;;;;;;;;;;;;;5073265;28;19981;-69
2023/11/05 02:10:43;;;;;;;;;;;;;;;;;;5069681;28;20388;-69
2023/11/05 02:13:09;;;;;;;;;;;;;;;;;;5073174;28;19923;-69
2023/11/05 02:15:35;;;;;;;;;;;;;;;;;;5073954;28;20317;-69
2023/11/05 02:18:01;;;;;;;;;;;;;;;;;;5074330;28;20384;-69
2023/11/05 02:20:27;;;;;;;;;;;;;;;;;;5081061;28;20011;-69
2023/11/05 02:22:54;;;;;;;;;;;;;;;;;;5073663;28;19951;-69
2023/11/05 02:25:19;;;;;;;;;;;;;;;;;;5073389;28;19921;-69
2023/11/05 02:27:45;;;;;;;;;;;;;;;;;;5072158;28;19959;-69
2023/11/05 02:30:11;;;;;;;;;;;;;;;;;;5073710;28;19917;-68
2023/11/05 02:32:37;;;;;;;;;;;;;;;;;;5074681;28;19923;-68
2023/11/05 02:35:03;;;;;;;;;;;;;;;;;;5074467;28;19909;-69
2023/11/05 02:37:29;;;;;;;;;;;;;;;;;;5073241;28;19963;-68
2023/11/05 02:39:55;;;;;;;;;;;;;;;;;;5069526;28;20399;-69
2023/11/05 02:42:21;;;;;;;;;;;;;;;;;;5072600;28;19965;-68
2023/11/05 02:44:47;;;;;;;;;;;;;;;;;;5065187;28;19954;-68
2023/11/05 02:47:13;;;;;;;;;;;;;;;;;;5067812;28;19959;-68
2023/11/05 02:49:38;;;;;;;;;;;;;;;;;;5072690;28;19919;-68
2023/11/05 02:52:05;;;;;;;;;;;;;;;;;;5069451;28;20035;-68
2023/11/05 02:54:33;;;;;;;;;;;;;;;;;;5062226;28;19916;-69
2023/11/05 02:57:00;;;;;;;;;;;;;;;;;;5067319;28;19963;-69
2023/11/05 02:59:26;;;;;;;;;;;;;;;;;;5063678;28;20313;-68
2023/11/05 03:01:51;;;;;;;;;;;;;;;;;;5064711;28;20022;-69
2023/11/05 03:04:18;;;;;;;;;;;;;;;;;;5070688;28;20392;-69
2023/11/05 03:06:49;;;;;;;;;;;;;;;;;;5072067;28;20383;-68
2023/11/05 03:09:17;;;;;;;;;;;;;;;;;;5057442;28;19920;-68
2023/11/05 03:11:44;;;;;;;;;;;;;;;;;;5062429;28;19928;-69
2023/11/05 03:14:10;;;;;;;;;;;;;;;;;;5072933;28;19961;-67
2023/11/05 03:16:36;;;;;;;;;;;;;;;;;;5071146;28;19917;-67
2023/11/05 03:19:03;;;;;;;;;;;;;;;;;;5073229;28;19922;-67
2023/11/05 03:21:31;;;;;;;;;;;;;;;;;;5071720;28;19947;-67
2023/11/05 03:23:57;;;;;;;;;;;;;;;;;;5071521;28;19916;-67
2023/11/05 03:26:23;;;;;;;;;;;;;;;;;;5054908;28;19927;-67
2023/11/05 03:28:49;;;;;;;;;;;;;;;;;;5066199;28;19916;-67
2023/11/05 03:31:18;;;;;;;;;;;;;;;;;;5071665;28;19908;-67
2023/11/05 03:33:44;;;;;;;;;;;;;;;;;;5069685;28;20265;-67
2023/11/05 03:36:10;;;;;;;;;;;;;;;;;;5071567;28;20005;-67
2023/11/05 03:38:36;;;;;;;;;;;;;;;;;;5072816;28;19916;-67
2023/11/05 03:41:01;;;;;;;;;;;;;;;;;;5072163;28;19959;-67
2023/11/05 03:43:27;;;;;;;;;;;;;;;;;;5070068;28;20277;-67
2023/11/05 03:45:53;;;;;;;;;;;;;;;;;;5069620;28;19912;-67
2023/11/05 03:48:19;;;;;;;;;;;;;;;;;;5054376;28;19958;-67
2023/11/05 03:50:45;;;;;;;;;;;;;;;;;;5068737;28;19958;-67
2023/11/05 03:53:11;;;;;;;;;;;;;;;;;;5064719;28;19924;-67
2023/11/05 03:55:37;;;;;;;;;;;;;;;;;;5065020;28;20395;-67
2023/11/05 03:58:03;;;;;;;;;;;;;;;;;;5068306;28;19912;-67
2023/11/05 04:00:29;;;;;;;;;;;;;;;;;;5067188;28;19913;-67
2023/11/05 04:02:55;;;;;;;;;;;;;;;;;;5070165;28;19955;-67
2023/11/05 04:05:21;;;;;;;;;;;;;;;;;;5070402;28;20432;-67
2023/11/05 04:07:47;;;;;;;;;;;;;;;;;;5070331;28;19959;-67
2023/11/05 04:10:13;;;;;;;;;;;;;;;;;;5066429;28;19999;-67
2023/11/05 04:12:39;;;;;;;;;;;;;;;;;;5070142;28;20011;-67
2023/11/05 04:15:06;;;;;;;;;;;;;;;;;;5070809;28;20059;-67
2023/11/05 04:17:32;;;;;;;;;;;;;;;;;;5070512;28;19942;-66
2023/11/05 04:19:58;;;;;;;;;;;;;;;;;;5069250;28;19959;-67
2023/11/05 04:22:24;;;;;;;;;;;;;;;;;;5071738;28;20015;-68
2023/11/05 04:24:51;;;;;;;;;;;;;;;;;;5069368;28;20058;-69
2023/11/05 04:27:17;;;;;;;;;;;;;;;;;;5063494;28;19920;-68
2023/11/05 04:29:43;;;;;;;;;;;;;;;;;;5052132;28;19966;-69
2023/11/05 04:32:10;;;;;;;;;;;;;;;;;;5060405;28;20356;-69
2023/11/05 04:34:36;;;;;;;;;;;;;;;;;;5072046;28;19966;-69
2023/11/05 04:37:02;;;;;;;;;;;;;;;;;;5070267;28;20288;-69
2023/11/05 04:39:28;;;;;;;;;;;;;;;;;;5071205;28;19941;-69
2023/11/05 04:41:53;;;;;;;;;;;;;;;;;;5071158;28;19923;-69
2023/11/05 04:44:19;;;;;;;;;;;;;;;;;;5058572;28;19958;-69
2023/11/05 04:46:45;;;;;;;;;;;;;;;;;;5071386;28;20374;-69
2023/11/05 04:49:11;;;;;;;;;;;;;;;;;;5070755;28;19917;-69
2023/11/05 04:51:37;;;;;;;;;;;;;;;;;;5080500;28;20018;-69
2023/11/05 04:54:03;;;;;;;;;;;;;;;;;;5069882;28;20394;-69
2023/11/05 04:56:29;;;;;;;;;;;;;;;;;;5071566;28;19912;-69
2023/11/05 04:58:55;;;;;;;;;;;;;;;;;;5070793;28;19920;-69
2023/11/05 05:01:21;;;;;;;;;;;;;;;;;;5070566;28;19959;-69
2023/11/05 05:03:47;;;;;;;;;;;;;;;;;;5069221;28;20264;-69
2023/11/05 05:06:13;;;;;;;;;;;;;;;;;;5083957;28;20019;-69
2023/11/05 05:08:39;;;;;;;;;;;;;;;;;;5077697;28;19919;-69
2023/11/05 05:11:05;;;;;;;;;;;;;;;;;;5084850;28;19995;-69
2023/11/05 05:13:31;;;;;;;;;;;;;;;;;;5069176;28;19979;-70
2023/11/05 05:15:57;;;;;;;;;;;;;;;;;;5079674;28;20241;-69
2023/11/05 05:18:23;;;;;;;;;;;;;;;;;;5078646;28;20291;-69
2023/11/05 05:20:49;;;;;;;;;;;;;;;;;;5078142;28;19920;-69
2023/11/05 05:23:15;;;;;;;;;;;;;;;;;;5074394;28;19948;-69
2023/11/05 05:25:41;;;;;;;;;;;;;;;;;;5066620;28;20407;-69
2023/11/05 05:28:07;;;;;;;;;;;;;;;;;;5049799;28;19958;-69
2023/11/05 05:30:33;;;;;;;;;;;;;;;;;;5075993;28;20003;-69
2023/11/05 05:32:59;;;;;;;;;;;;;;;;;;5070593;28;19978;-69
2023/11/05 05:35:24;;;;;;;;;;;;;;;;;;5069624;28;19962;-70
2023/11/05 05:37:50;;;;;;;;;;;;;;;;;;5077553;28;19912;-69
2023/11/05 05:40:16;;;;;;;;;;;;;;;;;;5078823;28;19956;-70
2023/11/05 05:42:42;;;;;;;;;;;;;;;;;;5082370;28;20049;-69
2023/11/05 05:45:08;;;;;;;;;;;;;;;;;;5079985;28;20039;-69
2023/11/05 05:47:34;;;;;;;;;;;;;;;;;;5068616;28;19916;-69
2023/11/05 05:50:00;;;;;;;;;;;;;;;;;;5075812;28;19912;-69
2023/11/05 05:52:26;;;;;;;;;;;;;;;;;;5082563;28;19912;-70
2023/11/05 05:54:52;;;;;;;;;;;;;;;;;;5079431;28;20384;-69
2023/11/05 05:57:18;;;;;;;;;;;;;;;;;;5058798;28;19912;-69
2023/11/05 05:59:44;;;;;;;;;;;;;;;;;;5069249;28;20401;-69
2023/11/05 06:02:10;;;;;;;;;;;;;;;;;;5077152;28;19912;-69
2023/11/05 06:04:35;;;;;;;;;;;;;;;;;;5074511;28;19957;-69
2023/11/05 06:07:01;;;;;;;;;;;;;;;;;;5073997;28;20379;-69
2023/11/05 06:09:28;;;;;;;;;;;;;;;;;;5074548;28;19919;-69
2023/11/05 06:11:54;;;;;;;;;;;;;;;;;;5076704;28;19942;-69
2023/11/05 06:14:20;;;;;;;;;;;;;;;;;;5073812;28;19967;-69
2023/11/05 06:16:46;;;;;;;;;;;;;;;;;;5072400;28;19956;-69
2023/11/05 06:19:12;;;;;;;;;;;;;;;;;;5079026;28;19951;-69
2023/11/05 06:21:38;;;;;;;;;;;;;;;;;;5090875;28;20287;-69
2023/11/05 06:24:04;;;;;;;;;;;;;;;;;;5086871;28;19958;-69
2023/11/05 06:26:30;;;;;;;;;;;;;;;;;;5086260;28;19926;-69
2023/11/05 06:28:55;;;;;;;;;;;;;;;;;;5071364;28;19943;-69
2023/11/05 06:31:21;;;;;;;;;;;;;;;;;;5080592;28;19912;-69
2023/11/05 06:33:47;;;;;;;;;;;;;;;;;;5085333;28;19964;-69
2023/11/05 06:36:13;;;;;;;;;;;;;;;;;;5086804;28;19983;-69
2023/11/05 06:38:40;;;;;;;;;;;;;;;;;;5084448;28;19916;-69
2023/11/05 06:41:06;;;;;;;;;;;;;;;;;;5085394;28;19908;-69
2023/11/05 06:43:32;;;;;;;;;;;;;;;;;;5087648;28;20014;-67
2023/11/05 06:45:58;;;;;;;;;;;;;;;;;;5074063;28;19919;-67
2023/11/05 06:48:24;;;;;;;;;;;;;;;;;;5076675;28;19913;-67
2023/11/05 06:50:50;;;;;;;;;;;;;;;;;;5074681;28;19973;-67
2023/11/05 06:53:16;;;;;;;;;;;;;;;;;;5075366;28;19923;-67
2023/11/05 06:55:42;;;;;;;;;;;;;;;;;;5076731;28;20031;-67
2023/11/05 06:58:09;;;;;;;;;;;;;;;;;;5084044;28;20408;-67
2023/11/05 07:00:35;;;;;;;;;;;;;;;;;;5078078;28;20349;-67
2023/11/05 07:03:01;;;;;;;;;;;;;;;;;;5078175;28;20011;-66
2023/11/05 07:05:27;;;;;;;;;;;;;;;;;;5088798;28;19980;-67
2023/11/05 07:07:53;;;;;;;;;;;;;;;;;;5078216;28;19912;-67
2023/11/05 07:10:19;;;;;;;;;;;;;;;;;;5062682;28;20292;-67
2023/11/05 07:12:46;;;;;;;;;;;;;;;;;;5077064;28;19951;-67
2023/11/05 07:15:12;;;;;;;;;;;;;;;;;;5074468;28;20296;-67
2023/11/05 07:17:38;;;;;;;;;;;;;;;;;;5075766;28;19919;-67
2023/11/05 07:20:03;;;;;;;;;;;;;;;;;;5089600;28;19908;-67
2023/11/05 07:22:29;;;;;;;;;;;;;;;;;;5067162;28;19934;-67
2023/11/05 07:24:55;;;;;;;;;;;;;;;;;;5070278;28;20337;-67
2023/11/05 07:27:21;;;;;;;;;;;;;;;;;;5087756;28;19954;-67
2023/11/05 07:29:47;;;;;;;;;;;;;;;;;;5091938;28;19924;-67
2023/11/05 07:32:13;;;;;;;;;;;;;;;;;;5071108;28;20008;-67
2023/11/05 07:34:39;;;;;;;;;;;;;;;;;;5078570;28;19927;-67
2023/11/05 07:37:05;;;;;;;;;;;;;;;;;;5075224;28;20411;-67
2023/11/05 07:39:31;;;;;;;;;;;;;;;;;;5078247;28;20152;-67
2023/11/05 07:41:57;;;;;;;;;;;;;;;;;;5067794;28;19922;-67
2023/11/05 07:44:23;;;;;;;;;;;;;;;;;;5092750;28;20357;-67
2023/11/05 07:46:49;;;;;;;;;;;;;;;;;;5077913;28;19908;-67
2023/11/05 07:49:15;;;;;;;;;;;;;;;;;;5079386;28;19951;-67
2023/11/05 07:51:41;;;;;;;;;;;;;;;;;;5069408;28;20477;-67
2023/11/05 07:54:07;;;;;;;;;;;;;;;;;;5061556;28;19970;-69
2023/11/05 07:56:33;;;;;;;;;;;;;;;;;;5063349;28;19920;-69
2023/11/05 07:58:59;;;;;;;;;;;;;;;;;;5077674;28;20417;-69
2023/11/05 08:01:25;;;;;;;;;;;;;;;;;;5059875;28;19944;-69
2023/11/05 08:03:51;;;;;;;;;;;;;;;;;;5066391;28;20019;-68
2023/11/05 08:06:17;;;;;;;;;;;;;;;;;;5059506;28;19913;-69
2023/11/05 08:08:43;;;;;;;;;;;;;;;;;;5056907;28;19916;-68
2023/11/05 08:11:09;;;;;;;;;;;;;;;;;;5062060;28;20029;-69
2023/11/05 08:13:34;;;;;;;;;;;;;;;;;;5072750;28;19984;-70
2023/11/05 08:16:02;;;;;;;;;;;;;;;;;;5070473;28;19956;-69
2023/11/05 08:18:28;;;;;;;;;;;;;;;;;;5070962;28;19962;-69
2023/11/05 08:20:54;;;;;;;;;;;;;;;;;;5071040;28;20003;-69
2023/11/05 08:23:20;;;;;;;;;;;;;;;;;;5081473;28;19912;-69
2023/11/05 08:25:46;;;;;;;;;;;;;;;;;;5068782;28;20443;-69
2023/11/05 08:28:12;;;;;;;;;;;;;;;;;;5070328;28;20736;-69
2023/11/05 08:30:37;;;;;;;;;;;;;;;;;;5084784;28;19916;-69
2023/11/05 08:33:03;;;;;;;;;;;;;;;;;;5065994;28;20007;-69
2023/11/05 08:35:29;;;;;;;;;;;;;;;;;;5068943;28;19912;-69
2023/11/05 08:37:57;;;;;;;;;;;;;;;;;;5070436;28;19912;-69
2023/11/05 08:40:25;;;;;;;;;;;;;;;;;;5061245;28;19959;-69
2023/11/05 08:42:51;;;;;;;;;;;;;;;;;;5081379;28;19960;-69
2023/11/05 08:45:17;;;;;;;;;;;;;;;;;;5076843;28;19975;-69
2023/11/05 08:47:43;;;;;;;;;;;;;;;;;;5069313;28;19962;-68
2023/11/05 08:50:09;;;;;;;;;;;;;;;;;;5079743;28;20016;-69
2023/11/05 08:52:35;;;;;;;;;;;;;;;;;;5074149;28;19924;-69
2023/11/05 08:55:03;;;;;;;;;;;;;;;;;;5071414;28;19954;-69
2023/11/05 08:57:29;;;;;;;;;;;;;;;;;;5083685;28;19913;-69
2023/11/05 08:59:55;;;;;;;;;;;;;;;;;;5073474;28;20284;-69
2023/11/05 09:02:23;;;;;;;;;;;;;;;;;;5080459;28;19917;-70
2023/11/05 09:04:49;;;;;;;;;;;;;;;;;;5069040;28;19919;-67
2023/11/05 09:07:15;;;;;;;;;;;;;;;;;;5069268;28;19957;-67
2023/11/05 09:09:41;;;;;;;;;;;;;;;;;;5064035;28;19912;-68
2023/11/05 09:12:09;;;;;;;;;;;;;;;;;;5074012;28;19916;-67
2023/11/05 09:14:35;;;;;;;;;;;;;;;;;;5069284;28;19952;-67
2023/11/05 09:17:01;;;;;;;;;;;;;;;;;;5072236;28;19960;-68
2023/11/05 09:19:28;;;;;;;;;;;;;;;;;;5074889;28;20434;-67
2023/11/05 09:21:54;;;;;;;;;;;;;;;;;;5076297;28;19912;-67
2023/11/05 09:24:20;;;;;;;;;;;;;;;;;;5068571;28;20907;-67
2023/11/05 09:26:46;;;;;;;;;;;;;;;;;;5074515;28;20011;-67
2023/11/05 09:29:13;;;;;;;;;;;;;;;;;;5078450;28;19964;-67
2023/11/05 09:31:38;;;;;;;;;;;;;;;;;;5072905;28;19912;-68
2023/11/05 09:34:07;;;;;;;;;;;;;;;;;;5071591;28;20017;-67
2023/11/05 09:36:33;;;;;;;;;;;;;;;;;;5077777;28;19920;-67
2023/11/05 09:38:59;;;;;;;;;;;;;;;;;;5068374;28;19927;-67
2023/11/05 09:41:27;;;;;;;;;;;;;;;;;;5073956;28;20286;-67
2023/11/05 09:43:53;;;;;;;;;;;;;;;;;;5077796;28;19912;-67
2023/11/05 09:46:19;;;;;;;;;;;;;;;;;;5070513;28;19959;-68
2023/11/05 09:48:45;;;;;;;;;;;;;;;;;;5071183;28;20677;-68
2023/11/05 09:51:12;;;;;;;;;;;;;;;;;;5066068;28;20327;-68
2023/11/05 09:53:38;;;;;;;;;;;;;;;;;;5069645;28;19934;-68
2023/11/05 09:56:04;;;;;;;;;;;;;;;;;;5070118;28;20010;-68
2023/11/05 09:58:30;;;;;;;;;;;;;;;;;;5080393;28;19916;-68
2023/11/05 10:00:56;;;;;;;;;;;;;;;;;;5073702;28;19917;-68
2023/11/05 10:03:22;;;;;;;;;;;;;;;;;;5075096;28;19920;-68
2023/11/05 10:05:48;;;;;;;;;;;;;;;;;;5064654;28;20030;-68
2023/11/05 10:08:14;;;;;;;;;;;;;;;;;;5068673;28;20275;-68
2023/11/05 10:10:41;;;;;;;;;;;;;;;;;;5067922;28;20368;-68
2023/11/05 10:13:07;;;;;;;;;;;;;;;;;;5081655;28;19964;-68
2023/11/05 10:15:33;;;;;;;;;;;;;;;;;;5079153;28;20382;-68
2023/11/05 10:17:59;;;;;;;;;;;;;;;;;;5067619;28;19999;-68
2023/11/05 10:20:25;;;;;;;;;;;;;;;;;;5049809;28;19966;-68
2023/11/05 10:22:52;;;;;;;;;;;;;;;;;;5063504;28;19927;-68
2023/11/05 10:25:18;;;;;;;;;;;;;;;;;;5070495;28;19960;-68
2023/11/05 10:27:44;;;;;;;;;;;;;;;;;;5065911;28;20339;-69
2023/11/05 10:30:10;;;;;;;;;;;;;;;;;;5072325;28;20011;-68
2023/11/05 10:32:36;;;;;;;;;;;;;;;;;;5073287;28;19963;-68
2023/11/05 10:35:02;;;;;;;;;;;;;;;;;;5080199;28;19996;-69
2023/11/05 10:37:28;;;;;;;;;;;;;;;;;;5079455;28;19913;-68
2023/11/05 10:39:53;;;;;;;;;;;;;;;;;;5070361;28;20023;-68
2023/11/05 10:42:19;;;;;;;;;;;;;;;;;;5070201;28;19920;-68
2023/11/05 10:44:45;;;;;;;;;;;;;;;;;;5055101;28;19954;-68
2023/11/05 10:47:11;;;;;;;;;;;;;;;;;;5066102;28;19960;-68
2023/11/05 10:49:37;;;;;;;;;;;;;;;;;;5068195;28;19921;-68
2023/11/05 10:52:03;;;;;;;;;;;;;;;;;;5072641;28;20392;-68
2023/11/05 10:54:29;;;;;;;;;;;;;;;;;;5072419;28;19916;-68
2023/11/05 10:56:55;;;;;;;;;;;;;;;;;;5075471;28;19924;-68
2023/11/05 10:59:22;;;;;;;;;;;;;;;;;;5075126;28;20007;-69
2023/11/05 11:01:48;;;;;;;;;;;;;;;;;;5076256;28;19920;-68
2023/11/05 11:04:15;;;;;;;;;;;;;;;;;;5070143;28;20075;-68
2023/11/05 11:06:41;;;;;;;;;;;;;;;;;;5070300;28;19920;-68
2023/11/05 11:09:07;;;;;;;;;;;;;;;;;;5067568;28;19912;-68
2023/11/05 11:11:34;;;;;;;;;;;;;;;;;;5071210;28;19931;-68
2023/11/05 11:14:00;;;;;;;;;;;;;;;;;;5066602;28;20276;-72
2023/11/05 11:16:26;;;;;;;;;;;;;;;;;;5069480;28;19955;-69
2023/11/05 11:18:53;;;;;;;;;;;;;;;;;;5047977;28;19967;-69
2023/11/05 11:21:19;;;;;;;;;;;;;;;;;;5067374;28;20964;-69
2023/11/05 11:23:45;;;;;;;;;;;;;;;;;;5065404;28;19943;-75
2023/11/05 11:26:13;;;;;;;;;;;;;;;;;;5068174;28;19975;-71
2023/11/05 11:28:40;;;;;;;;;;;;;;;;;;5070484;28;19920;-73
2023/11/05 11:31:06;;;;;;;;;;;;;;;;;;5072737;28;19959;-72
2023/11/05 11:33:31;;;;;;;;;;;;;;;;;;5075823;28;20379;-73
2023/11/05 11:35:57;;;;;;;;;;;;;;;;;;5068755;28;19916;-73
2023/11/05 11:38:23;;;;;;;;;;;;;;;;;;5067107;28;20023;-72
2023/11/05 11:40:49;;;;;;;;;;;;;;;;;;5058946;28;20015;-71
2023/11/05 11:43:15;;;;;;;;;;;;;;;;;;5069876;28;19965;-70
2023/11/05 11:45:43;;;;;;;;;;;;;;;;;;5070970;28;19912;-71
2023/11/05 11:48:09;;;;;;;;;;;;;;;;;;5072033;28;19923;-71
2023/11/05 11:50:35;;;;;;;;;;;;;;;;;;5068706;28;20007;-71
2023/11/05 11:53:01;;;;;;;;;;;;;;;;;;5060764;28;19924;-69
2023/11/05 11:55:27;;;;;;;;;;;;;;;;;;5072245;28;19991;-70
2023/11/05 11:57:53;;;;;;;;;;;;;;;;;;5068741;28;19921;-69
2023/11/05 12:00:20;;;;;;;;;;;;;;;;;;5066330;28;19962;-71
2023/11/05 12:02:46;;;;;;;;;;;;;;;;;;5072278;28;20363;-69
2023/11/05 12:05:12;;;;;;;;;;;;;;;;;;5062885;28;20003;-70
2023/11/05 12:07:38;;;;;;;;;;;;;;;;;;5074175;28;20019;-67
2023/11/05 12:10:04;;;;;;;;;;;;;;;;;;5068535;28;20330;-68
2023/11/05 12:12:31;;;;;;;;;;;;;;;;;;5064708;28;20006;-67
2023/11/05 12:14:57;;;;;;;;;;;;;;;;;;5073416;28;19913;-68
2023/11/05 12:17:23;;;;;;;;;;;;;;;;;;5074862;28;19912;-69
2023/11/05 12:19:49;;;;;;;;;;;;;;;;;;5072499;28;19912;-69
2023/11/05 12:22:15;;;;;;;;;;;;;;;;;;5075741;28;19912;-66
2023/11/05 12:24:41;;;;;;;;;;;;;;;;;;5059476;28;20366;-67
2023/11/05 12:27:06;;;;;;;;;;;;;;;;;;5072446;28;20047;-68
2023/11/05 12:29:32;;;;;;;;;;;;;;;;;;5069119;28;19920;-68
2023/11/05 12:31:58;;;;;;;;;;;;;;;;;;5050305;28;19913;-68
2023/11/05 12:34:24;;;;;;;;;;;;;;;;;;5063635;28;19916;-72
2023/11/05 12:36:51;;;;;;;;;;;;;;;;;;5070267;28;20415;-68
2023/11/05 12:39:17;;;;;;;;;;;;;;;;;;5060042;28;19959;-73
2023/11/05 12:41:44;;;;;;;;;;;;;;;;;;5069221;28;19916;-68
2023/11/05 12:44:10;;;;;;;;;;;;;;;;;;5071323;28;20410;-76
2023/11/05 12:46:36;;;;;;;;;;;;;;;;;;5070371;28;19995;-70
2023/11/05 12:49:02;;;;;;;;;;;;;;;;;;5074482;28;19951;-70
2023/11/05 12:51:28;;;;;;;;;;;;;;;;;;5065487;28;19919;-70
2023/11/05 12:53:54;;;;;;;;;;;;;;;;;;5076491;28;19920;-69
2023/11/05 12:56:20;;;;;;;;;;;;;;;;;;5085210;28;19923;-71
2023/11/05 12:58:48;;;;;;;;;;;;;;;;;;5071384;28;20360;-70
2023/11/05 13:01:14;;;;;;;;;;;;;;;;;;5062750;28;19949;-68
2023/11/05 13:03:40;;;;;;;;;;;;;;;;;;5063229;28;19952;-67
2023/11/05 13:06:06;;;;;;;;;;;;;;;;;;5064630;28;20350;-68
2023/11/05 13:08:32;;;;;;;;;;;;;;;;;;5061366;28;19917;-68
2023/11/05 13:10:58;;;;;;;;;;;;;;;;;;5079303;28;19912;-68
2023/11/05 13:13:24;;;;;;;;;;;;;;;;;;5058299;28;20443;-69
2023/11/05 13:15:50;;;;;;;;;;;;;;;;;;5065420;28;19999;-69
2023/11/05 13:18:17;;;;;;;;;;;;;;;;;;5062696;28;19913;-68
2023/11/05 13:20:43;;;;;;;;;;;;;;;;;;5072517;28;19912;-68
2023/11/05 13:23:09;;;;;;;;;;;;;;;;;;5074790;28;19919;-68
2023/11/05 13:25:35;;;;;;;;;;;;;;;;;;5070505;28;20361;-68
2023/11/05 13:28:02;;;;;;;;;;;;;;;;;;5072156;28;19989;-68
2023/11/05 13:30:29;;;;;;;;;;;;;;;;;;5072944;28;19924;-68
2023/11/05 13:32:55;;;;;;;;;;;;;;;;;;5069349;28;19916;-68
2023/11/05 13:35:22;;;;;;;;;;;;;;;;;;5065166;28;19961;-68
2023/11/05 13:37:48;;;;;;;;;;;;;;;;;;5071532;28;19978;-68
2023/11/05 13:40:15;;;;;;;;;;;;;;;;;;5067993;28;19923;-68
2023/11/05 13:42:41;;;;;;;;;;;;;;;;;;5070531;28;20118;-67
2023/11/05 13:45:09;;;;;;;;;;;;;;;;;;5063011;28;20052;-68
2023/11/05 13:47:35;;;;;;;;;;;;;;;;;;5070504;28;19912;-68
2023/11/05 13:50:01;;;;;;;;;;;;;;;;;;5069262;28;19912;-68
2023/11/05 13:52:27;;;;;;;;;;;;;;;;;;5066803;28;19955;-68
2023/11/05 13:54:53;;;;;;;;;;;;;;;;;;5062317;28;20287;-69
2023/11/05 13:57:19;;;;;;;;;;;;;;;;;;5072621;28;19927;-68
2023/11/05 13:59:45;;;;;;;;;;;;;;;;;;5070328;28;19917;-69
2023/11/05 14:02:11;;;;;;;;;;;;;;;;;;5071907;28;19989;-68
2023/11/05 14:04:37;;;;;;;;;;;;;;;;;;5066410;28;19952;-68
2023/11/05 14:07:03;;;;;;;;;;;;;;;;;;5072351;28;20350;-68
2023/11/05 14:09:31;;;;;;;;;;;;;;;;;;5075872;28;19947;-68
2023/11/05 14:12:02;;;;;;;;;;;;;;;;;;5073552;28;19912;-68
2023/11/05 14:14:28;;;;;;;;;;;;;;;;;;5070346;28;19956;-68
2023/11/05 14:16:54;;;;;;;;;;;;;;;;;;5064142;28;19951;-68
2023/11/05 14:19:20;;;;;;;;;;;;;;;;;;5063431;28;19917;-68
2023/11/05 14:21:46;;;;;;;;;;;;;;;;;;5057406;28;19921;-69
2023/11/05 14:24:12;;;;;;;;;;;;;;;;;;5061801;28;19916;-68
2023/11/05 14:26:38;;;;;;;;;;;;;;;;;;5063477;28;20343;-68
2023/11/05 14:29:04;;;;;;;;;;;;;;;;;;5070013;28;19951;-69
2023/11/05 14:31:30;;;;;;;;;;;;;;;;;;5063720;28;20280;-68
2023/11/05 14:33:57;;;;;;;;;;;;;;;;;;5071602;28;20332;-68
2023/11/05 14:36:23;;;;;;;;;;;;;;;;;;5081737;28;19944;-68
2023/11/05 14:38:49;;;;;;;;;;;;;;;;;;5071388;28;19936;-69
2023/11/05 14:41:22;;;;;;;;;;;;;;;;;;5076486;28;19930;-68
2023/11/05 14:43:48;;;;;;;;;;;;;;;;;;5063818;28;19985;-68
2023/11/05 14:46:14;;;;;;;;;;;;;;;;;;5077504;28;20379;-68
2023/11/05 14:48:40;;;;;;;;;;;;;;;;;;5064708;28;19924;-68
2023/11/05 14:51:05;;;;;;;;;;;;;;;;;;5075231;28;19944;-68
2023/11/05 14:53:32;;;;;;;;;;;;;;;;;;5063804;28;20062;-68
2023/11/05 14:56:00;;;;;;;;;;;;;;;;;;5069601;28;20468;-68
2023/11/05 14:58:26;;;;;;;;;;;;;;;;;;5075918;28;20022;-68
2023/11/05 15:00:52;;;;;;;;;;;;;;;;;;5056975;28;20018;-68
2023/11/05 15:03:18;;;;;;;;;;;;;;;;;;5074487;28;19955;-68
2023/11/05 15:05:46;;;;;;;;;;;;;;;;;;5064218;28;19931;-68
2023/11/05 15:08:11;;;;;;;;;;;;;;;;;;5063080;28;19912;-67
2023/11/05 15:10:37;;;;;;;;;;;;;;;;;;5077565;28;20383;-67
2023/11/05 15:13:04;;;;;;;;;;;;;;;;;;5068872;28;20019;-68
2023/11/05 15:15:30;;;;;;;;;;;;;;;;;;5049824;28;19913;-67
2023/11/05 15:17:56;;;;;;;;;;;;;;;;;;5073118;28;19952;-67
2023/11/05 15:20:22;;;;;;;;;;;;;;;;;;5075192;28;19917;-67
2023/11/05 15:22:48;;;;;;;;;;;;;;;;;;5073936;28;20328;-67
2023/11/05 15:25:15;;;;;;;;;;;;;;;;;;5069213;28;19974;-69
2023/11/05 15:27:41;;;;;;;;;;;;;;;;;;5070374;28;20380;-67
2023/11/05 15:30:08;;;;;;;;;;;;;;;;;;5069982;28;19939;-67
2023/11/05 15:32:36;;;;;;;;;;;;;;;;;;5079275;28;19912;-68
2023/11/05 15:35:02;;;;;;;;;;;;;;;;;;5066266;28;19920;-68
2023/11/05 15:37:28;;;;;;;;;;;;;;;;;;5073969;28;20352;-68
2023/11/05 15:39:54;;;;;;;;;;;;;;;;;;5068502;28;19919;-67
2023/11/05 15:42:20;;;;;;;;;;;;;;;;;;5073996;28;19951;-67
2023/11/05 15:44:46;;;;;;;;;;;;;;;;;;5073702;28;20003;-67
2023/11/05 15:47:13;;;;;;;;;;;;;;;;;;5069933;28;21481;-68
2023/11/05 15:49:39;;;;;;;;;;;;;;;;;;5063480;28;19916;-68
2023/11/05 15:52:05;;;;;;;;;;;;;;;;;;5057356;28;19928;-68
2023/11/05 15:54:31;;;;;;;;;;;;;;;;;;5064953;28;19923;-69
2023/11/05 15:56:57;;;;;;;;;;;;;;;;;;5075719;28;19912;-68
2023/11/05 15:59:23;;;;;;;;;;;;;;;;;;5075203;28;19956;-68
2023/11/05 16:01:50;;;;;;;;;;;;;;;;;;5062659;28;20333;-68
2023/11/05 16:04:18;;;;;;;;;;;;;;;;;;5067561;28;19973;-68
2023/11/05 16:06:44;;;;;;;;;;;;;;;;;;5077458;28;19913;-68
2023/11/05 16:09:11;;;;;;;;;;;;;;;;;;5071416;28;19927;-68
2023/11/05 16:11:37;;;;;;;;;;;;;;;;;;5072040;28;19916;-68
2023/11/05 16:14:03;;;;;;;;;;;;;;;;;;5066573;28;19956;-68
2023/11/05 16:16:29;;;;;;;;;;;;;;;;;;5065589;28;19917;-68
2023/11/05 16:18:55;;;;;;;;;;;;;;;;;;5069466;28;20320;-68
2023/11/05 16:21:21;;;;;;;;;;;;;;;;;;5073011;28;20006;-68
2023/11/05 16:23:47;;;;;;;;;;;;;;;;;;5071348;28;19959;-68
2023/11/05 16:26:13;;;;;;;;;;;;;;;;;;5068004;28;19967;-68
2023/11/05 16:28:39;;;;;;;;;;;;;;;;;;5071248;28;19961;-68
2023/11/05 16:31:05;;;;;;;;;;;;;;;;;;5072354;28;19912;-68
2023/11/05 16:33:31;;;;;;;;;;;;;;;;;;5068115;28;19967;-68
2023/11/05 16:35:57;;;;;;;;;;;;;;;;;;5088033;28;20474;-68
2023/11/05 16:38:23;;;;;;;;;;;;;;;;;;5069197;28;19964;-68